My Meet Scores
Elin Eiseman, Gym Stars ETC - MyMeetScores.com
Top100 | Top Teams | Upcoming Meets | Completed Meets | Latest | Add Scores | Help| Support | Bookmark and Share

Elin Eiseman, Gym Stars ETC
Personal Bests
LevelVault BarsBeamFloorAA
XG9.1759.500 9.4509.82537.700
XS9.4509.750 9.6009.57538.150
Scores on America's Top 100as of 10.16.2019
Year Level Vault Bars Beam Floor AA
2019 XG9.825

Click here to view our
exclusive Top 100 Collection
Meet Scores
Date Meet Team Session Level Division Vault Bars Beam Floor AA
2019-05-03 2019 Region 5 Xcel Championships Gym Stars ETC 09D XG CH D 9.175 18T 9.400 8T 9.450 11T 9.350 7T 37.375 7
2019-04-05 2019 Illinois XG, XP, XD State Championships Gym Stars ETC 7 XG Ch E 9.100 8T 9.500 7 9.425 4 9.675 1 37.700 1T
2019-03-08 Lucky Invite Gym Stars ETC B03 XG Jr A 8.775 9 9.450 3T 9.225 11 9.825 1 37.275 2
2019-02-15 Women's Midwest Open Gym Stars ETC 10 XG Junior A 8.925 7 9.000 7 8.525 12T 9.500 3 35.950 9
2019-02-01 St. Valentines Classic Gym Stars ETC 5B XG 10-11 yrs. 8.800 8T 8.100 21 8.250 15T 9.200 7 34.350 15
2019-01-11 St Jude Benefit Meet Gym Stars ETC 5C XG Jr A 8.600 15 9.450 5 9.275 1 9.550 1 36.875 2
2018-12-14 Hawaiian Pineapple Classic Gym Stars ETC 7A XG Age11 8.400 11 9.100 8 9.000 2 9.050 7T 35.550 4
2018-11-17 Paul Hamm Thanksgiving Class WOMENS Gym Stars ETC 8 XG Younger 8.750 13 9.225 7T 8.700 8 9.400 3 36.075 5
2018-04-26 Xcel Region 5 Championships Gym Stars ETC 6B XS Ch F 9.275 8 9.625 5 9.425 6 9.350 8 37.675 6
2018-04-06 XCEL State Championships Gym Stars ETC 3A XS Ch D 9.250 13T 9.225 16T 9.425 6 9.550 3 37.450 6
2018-03-09 Lucky Invitational Gym Stars ETC B09 XS Jr A 8.950 5T 9.600 6T 9.350 5T 9.400 3T 37.300 3
2018-02-16 Big Classic Gym Stars ETC 9A XS Junior B 9.450 5T 9.750 1 9.600 3T 9.350 3 38.150 1
2018-01-12 St Jude Benefit Meet Gym Stars ETC 9C XS JrA 9.100 4 9.325 7 9.575 1 9.375 1T 37.375 1
2017-12-14 2017 Women's Hawaiian Pineapple Classic Gym Stars ETC 3A XS Age10 8.600 10 9.375 6 9.350 5 9.575 3 36.900 4
2017-11-17 SCGA Classic Gym Stars ETC 4 XS JrA 9.125 4 9.575 3 9.200 2 9.075 2 36.975 2
2017-05-11 2017 Region 5 Xcel Championships Gym Stars ETC 3B XS Ch C 8.850 19 9.300 21 9.125 19T 9.050 25T 36.325 21
2017-04-21 2017 Illinois Xcel State Championships Gym Stars ETC 5 XS Ch B 9.000 8T 9.450 10T 8.900 21T 9.075 16T 36.425 12T
2017-03-10 Lucky Invitational Gym Stars ETC B07 XS Jr A 9.200 5T 9.400 6T 9.275 6 8.950 10T 36.825 6
2017-02-24 Kinetic Classic Gym Stars ETC 8 XS All Ages 8.550 35T 9.225 39 9.275 38T 8.750 43 35.800 40
2017-02-10 IGI Chicago Style Gymnastics Meet Gym Stars ETC 631L XS JrA 8.400 7 9.050 3 9.150 5 9.025 6 35.625 5
Get your scores on
a t-shirt, pin, or hoodie

www.lazysuits.com